createdAt,value
2018-07-14T00:02:05.507Z,73.68
2018-07-14T00:04:35.147Z,73.46
2018-07-14T00:07:04.796Z,73.64
2018-07-14T00:09:34.467Z,73.52
2018-07-14T00:12:04.091Z,73.90
2018-07-14T00:14:33.707Z,73.75
2018-07-14T00:17:03.385Z,75.37
2018-07-14T00:19:33.044Z,75.22
2018-07-14T00:22:02.676Z,75.65
2018-07-14T00:24:32.356Z,75.27
2018-07-14T00:27:01.985Z,75.40
2018-07-14T00:29:31.641Z,76.28
2018-07-14T00:32:01.325Z,75.30
2018-07-14T00:34:30.984Z,76.06
2018-07-14T00:37:00.591Z,76.82
2018-07-14T00:39:30.259Z,75.90
2018-07-14T00:41:59.909Z,75.28
2018-07-14T00:44:29.552Z,76.59
2018-07-14T00:46:59.211Z,75.96
2018-07-14T00:49:28.846Z,76.41
2018-07-14T00:51:58.548Z,76.26
2018-07-14T00:54:28.208Z,76.30
2018-07-14T00:56:57.828Z,76.93
2018-07-14T00:59:27.432Z,77.38
2018-07-14T01:01:57.076Z,76.46
2018-07-14T01:04:26.718Z,75.50
2018-07-14T01:06:56.359Z,76.37
2018-07-14T01:09:26.027Z,76.98
2018-07-14T01:11:55.653Z,77.33
2018-07-14T01:14:25.264Z,77.61
2018-07-14T01:16:54.900Z,76.68
2018-07-14T01:19:24.487Z,76.69
2018-07-14T01:21:54.144Z,76.69
2018-07-14T01:24:23.781Z,76.95
2018-07-14T01:26:53.410Z,77.19
2018-07-14T01:29:23.077Z,77.08
2018-07-14T01:31:52.682Z,77.65
2018-07-14T01:34:22.307Z,76.59
2018-07-14T01:36:51.956Z,77.19
2018-07-14T01:39:21.570Z,76.42
2018-07-14T01:41:51.332Z,77.19
2018-07-14T01:44:20.952Z,78.26
2018-07-14T01:46:50.543Z,77.06
2018-07-14T01:49:20.212Z,76.36
2018-07-14T01:51:49.827Z,75.76
2018-07-14T01:54:19.437Z,77.09
2018-07-14T01:56:49.107Z,76.13
2018-07-14T01:59:18.731Z,75.72
2018-07-14T02:01:48.355Z,75.60
2018-07-14T02:04:17.983Z,76.37
2018-07-14T02:06:47.598Z,77.37
2018-07-14T02:09:17.263Z,77.83
2018-07-14T02:11:46.903Z,78.08
2018-07-14T02:14:16.515Z,78.21
2018-07-14T02:16:46.191Z,78.31
2018-07-14T02:19:15.787Z,78.19
2018-07-14T02:21:45.395Z,77.90
2018-07-14T02:24:15.033Z,77.55
2018-07-14T02:26:44.655Z,77.29
2018-07-14T02:29:14.283Z,77.18
2018-07-14T02:31:43.944Z,76.71
2018-07-14T02:34:13.589Z,77.45
2018-07-14T02:36:43.260Z,78.72
2018-07-14T02:39:12.863Z,77.22
2018-07-14T02:41:42.471Z,78.25
2018-07-14T02:44:12.271Z,78.47
2018-07-14T02:46:41.917Z,79.80
2018-07-14T02:49:11.528Z,79.09
2018-07-14T02:51:41.556Z,78.98
2018-07-14T02:54:11.163Z,78.68
2018-07-14T02:56:40.795Z,77.35
2018-07-14T02:59:10.472Z,78.88
2018-07-14T03:01:40.129Z,79.82
2018-07-14T03:04:09.766Z,80.74
2018-07-14T03:06:39.461Z,80.61
2018-07-14T03:09:09.140Z,79.94
2018-07-14T03:11:38.764Z,79.47
2018-07-14T03:14:08.449Z,78.47
2018-07-14T03:16:38.045Z,78.58
2018-07-14T03:19:07.645Z,78.27
2018-07-14T03:21:37.562Z,78.86
2018-07-14T03:24:07.177Z,79.09
2018-07-14T03:26:36.836Z,78.25
2018-07-14T03:29:06.611Z,78.24
2018-07-14T03:31:36.220Z,79.01
2018-07-14T03:34:05.838Z,79.79
2018-07-14T03:36:35.743Z,79.99
2018-07-14T03:39:05.505Z,81.22
2018-07-14T03:41:35.188Z,79.25
2018-07-14T03:44:04.852Z,78.71
2018-07-14T03:46:34.455Z,79.34
2018-07-14T03:49:04.136Z,78.12
2018-07-14T03:51:33.759Z,77.99
2018-07-14T03:54:03.388Z,78.39
2018-07-14T03:56:33.064Z,78.12
2018-07-14T03:59:02.664Z,77.28
2018-07-14T04:01:32.315Z,77.91
2018-07-14T04:04:01.961Z,78.57
2018-07-14T04:06:31.649Z,78.88
2018-07-14T04:09:01.324Z,79.00
2018-07-14T04:11:30.943Z,78.97
2018-07-14T04:14:00.536Z,79.47
2018-07-14T04:16:30.187Z,79.68
2018-07-14T04:18:59.799Z,80.88
2018-07-14T04:21:29.411Z,80.32
2018-07-14T04:23:59.172Z,80.49
2018-07-14T04:26:28.803Z,80.21
2018-07-14T04:28:58.404Z,80.08
2018-07-14T04:31:28.060Z,80.06
2018-07-14T04:33:57.667Z,78.79
2018-07-14T04:36:27.340Z,78.60
2018-07-14T04:38:57.012Z,77.94
2018-07-14T04:41:26.612Z,78.55
2018-07-14T04:43:56.234Z,77.60
2018-07-14T04:46:25.891Z,78.08
2018-07-14T04:48:55.504Z,78.17
2018-07-14T04:51:25.301Z,78.17
2018-07-14T04:53:54.949Z,77.08
2018-07-14T04:56:24.560Z,77.12
2018-07-14T04:58:54.220Z,77.27
2018-07-14T05:01:23.827Z,77.00
2018-07-14T05:03:53.419Z,76.48
2018-07-14T05:06:23.126Z,77.69
2018-07-14T05:08:52.716Z,76.54
2018-07-14T05:11:22.389Z,76.25
2018-07-14T05:13:52.060Z,77.20
2018-07-14T05:16:21.672Z,77.56
2018-07-14T05:18:51.279Z,76.46
2018-07-14T05:21:21.028Z,76.46
2018-07-14T05:23:50.583Z,76.66
2018-07-14T05:26:20.231Z,75.69
2018-07-14T05:28:50.186Z,75.38
2018-07-14T05:31:19.829Z,74.08
2018-07-14T05:33:49.520Z,75.75
2018-07-14T05:36:19.191Z,75.19
2018-07-14T05:38:48.799Z,74.78
2018-07-14T05:41:18.441Z,74.11
2018-07-14T05:43:48.126Z,73.67
2018-07-14T05:46:17.744Z,72.99
2018-07-14T05:48:47.413Z,73.40
2018-07-14T05:51:17.021Z,75.78
2018-07-14T05:53:46.650Z,75.78
2018-07-14T05:56:16.308Z,74.32
2018-07-14T05:58:45.946Z,73.40
2018-07-14T06:01:15.566Z,73.49
2018-07-14T06:03:45.215Z,73.26
2018-07-14T06:06:14.840Z,73.23
2018-07-14T06:08:44.464Z,73.21
2018-07-14T06:11:14.135Z,72.35
2018-07-14T06:13:43.760Z,71.05
2018-07-14T06:16:13.444Z,70.51
2018-07-14T06:18:43.312Z,70.85
2018-07-14T06:21:12.959Z,70.65
2018-07-14T06:23:42.564Z,71.70
2018-07-14T06:26:12.260Z,71.76
2018-07-14T06:28:41.933Z,72.10
2018-07-14T06:31:11.544Z,72.64
2018-07-14T06:33:41.392Z,72.30
2018-07-14T06:36:11.044Z,73.00
2018-07-14T06:38:40.837Z,72.37
2018-07-14T06:41:10.495Z,73.56
2018-07-14T06:43:40.128Z,72.10
2018-07-14T06:46:09.760Z,70.61
2018-07-14T06:48:39.427Z,69.46
2018-07-14T06:51:09.568Z,70.46
2018-07-14T06:53:39.611Z,68.88
2018-07-14T06:56:09.273Z,68.10
2018-07-14T06:58:38.935Z,68.57
2018-07-14T07:01:08.720Z,68.71
2018-07-14T07:03:38.325Z,68.92
2018-07-14T07:06:08.005Z,66.51
2018-07-14T07:08:37.621Z,64.91
2018-07-14T07:11:07.320Z,63.90
2018-07-14T07:13:37.015Z,63.64
2018-07-14T07:16:06.684Z,64.27
2018-07-14T07:18:36.639Z,64.91
2018-07-14T07:21:06.240Z,63.66
2018-07-14T07:23:35.851Z,63.10
2018-07-14T07:26:05.629Z,63.57
2018-07-14T07:28:35.254Z,62.00
2018-07-14T07:31:04.916Z,62.19
2018-07-14T07:33:34.604Z,60.51
2018-07-14T07:36:04.210Z,61.14
2018-07-14T07:38:33.879Z,60.49
2018-07-14T07:41:03.532Z,61.12
2018-07-14T07:43:33.164Z,60.55
2018-07-14T07:46:02.772Z,60.47
2018-07-14T07:48:32.436Z,59.03
2018-07-14T07:51:02.068Z,58.89
2018-07-14T07:53:31.681Z,59.71
2018-07-14T07:56:01.519Z,58.46
2018-07-14T07:58:31.139Z,59.54
2018-07-14T08:01:00.745Z,59.63
2018-07-14T08:03:30.441Z,59.85
2018-07-14T08:06:00.081Z,58.32
2018-07-14T08:08:29.693Z,57.57
2018-07-14T08:10:59.380Z,58.25
2018-07-14T08:13:28.991Z,59.38
2018-07-14T08:15:58.619Z,58.31
2018-07-14T08:18:28.533Z,57.66
2018-07-14T08:20:58.172Z,56.35
2018-07-14T08:23:27.847Z,55.67
2018-07-14T08:25:57.552Z,56.55
2018-07-14T08:28:27.172Z,57.30
2018-07-14T08:30:56.800Z,57.20
2018-07-14T08:33:26.476Z,56.27
2018-07-14T08:35:56.096Z,55.69
2018-07-14T08:38:25.764Z,56.46
2018-07-14T08:40:55.414Z,55.58
2018-07-14T08:43:25.058Z,54.87
2018-07-14T08:45:54.712Z,54.93
2018-07-14T08:48:24.603Z,53.92
2018-07-14T08:50:54.228Z,53.99
2018-07-14T08:53:23.911Z,54.22
2018-07-14T08:55:53.605Z,53.73
2018-07-14T08:58:28.246Z,53.69
2018-07-14T09:00:59.423Z,53.29
2018-07-14T09:03:29.102Z,52.23
2018-07-14T09:05:59.719Z,53.16
2018-07-14T09:08:29.336Z,53.00
2018-07-14T09:10:59.059Z,52.77
2018-07-14T09:13:28.674Z,53.22
2018-07-14T09:15:58.320Z,53.18
2018-07-14T09:18:27.973Z,52.70
2018-07-14T09:20:57.660Z,53.43
2018-07-14T09:23:27.347Z,51.95
2018-07-14T09:25:56.976Z,51.93
2018-07-14T09:28:26.611Z,52.74
2018-07-14T09:30:56.276Z,52.28
2018-07-14T09:33:25.892Z,52.34
2018-07-14T09:35:55.500Z,51.41
2018-07-14T09:38:25.297Z,51.82
2018-07-14T09:40:54.940Z,51.28
2018-07-14T09:43:24.584Z,50.46
2018-07-14T09:45:54.240Z,50.75
2018-07-14T09:48:23.898Z,50.05
2018-07-14T09:50:53.523Z,49.52
2018-07-14T09:53:23.252Z,50.06
2018-07-14T09:55:52.889Z,49.48
2018-07-14T09:58:22.528Z,49.55
2018-07-14T10:00:57.426Z,50.33
2018-07-14T10:03:27.073Z,50.46
2018-07-14T10:05:56.669Z,49.41
2018-07-14T10:08:26.347Z,49.81
2018-07-14T10:10:55.964Z,50.48
2018-07-14T10:13:25.591Z,50.83
2018-07-14T10:15:55.554Z,51.11
2018-07-14T10:18:25.176Z,52.20
2018-07-14T10:20:54.812Z,53.22
2018-07-14T10:23:24.571Z,51.46
2018-07-14T10:25:54.341Z,51.51
2018-07-14T10:28:23.857Z,51.28
2018-07-14T10:30:53.644Z,52.09
2018-07-14T10:33:23.280Z,53.44
2018-07-14T10:35:52.896Z,52.57
2018-07-14T10:38:22.589Z,52.16
2018-07-14T10:40:52.256Z,50.87
2018-07-14T10:43:22.190Z,50.83
2018-07-14T10:45:51.888Z,52.60
2018-07-14T10:48:21.551Z,49.42
2018-07-14T10:50:51.219Z,50.38
2018-07-14T10:53:20.844Z,48.30
2018-07-14T10:55:50.515Z,49.12
2018-07-14T10:58:20.140Z,50.11
2018-07-14T11:00:49.774Z,48.62
2018-07-14T11:03:19.496Z,48.68
2018-07-14T11:05:49.211Z,47.71
2018-07-14T11:08:18.829Z,47.01
2018-07-14T11:10:48.507Z,47.76
2018-07-14T11:13:18.145Z,46.34
2018-07-14T11:15:47.788Z,47.61
2018-07-14T11:18:17.472Z,46.25
2018-07-14T11:20:47.107Z,47.41
2018-07-14T11:23:16.733Z,47.07
2018-07-14T11:25:46.431Z,46.00
2018-07-14T11:28:16.065Z,44.92
2018-07-14T11:30:45.980Z,45.54
2018-07-14T11:33:15.644Z,47.06
2018-07-14T11:35:45.268Z,47.71
2018-07-14T11:38:14.966Z,46.91
2018-07-14T11:40:44.748Z,47.06
2018-07-14T11:43:14.379Z,46.07
2018-07-14T11:45:44.071Z,46.68
2018-07-14T11:48:13.691Z,46.87
2018-07-14T11:50:43.320Z,45.72
2018-07-14T11:53:12.990Z,46.47
2018-07-14T11:55:42.617Z,46.25
2018-07-14T11:58:12.268Z,46.33
2018-07-14T12:00:41.940Z,47.73
2018-07-14T12:03:11.552Z,48.45
2018-07-14T12:05:41.202Z,47.41
2018-07-14T12:08:10.856Z,46.69
2018-07-14T12:10:40.508Z,47.80
2018-07-14T12:13:10.140Z,48.20
2018-07-14T12:15:39.759Z,46.77
2018-07-14T12:18:09.516Z,46.13
2018-07-14T12:20:39.163Z,45.64
2018-07-14T12:23:08.783Z,45.48
2018-07-14T12:25:38.464Z,43.69
2018-07-14T12:28:08.348Z,44.14
2018-07-14T12:30:38.048Z,43.05
2018-07-14T12:33:07.680Z,42.78
2018-07-14T12:35:37.345Z,41.76
2018-07-14T12:38:07.004Z,42.66
2018-07-14T12:40:36.700Z,41.90
2018-07-14T12:43:06.404Z,42.69
2018-07-14T12:45:36.097Z,42.79
2018-07-14T12:48:06.055Z,42.75
2018-07-14T12:50:35.696Z,41.38
2018-07-14T12:53:05.413Z,42.30
2018-07-14T12:55:35.072Z,41.24
2018-07-14T12:58:04.743Z,40.56
2018-07-14T13:00:34.412Z,41.49
2018-07-14T13:03:04.101Z,41.48
2018-07-14T13:05:33.780Z,40.40
2018-07-14T13:08:03.402Z,39.86
2018-07-14T13:10:33.083Z,41.08
2018-07-14T13:13:02.713Z,40.88
2018-07-14T13:15:32.331Z,39.12
2018-07-14T13:18:02.024Z,39.06
2018-07-14T13:20:31.673Z,39.86
2018-07-14T13:23:01.288Z,38.55
2018-07-14T13:25:30.980Z,39.76
2018-07-14T13:28:00.599Z,41.37
2018-07-14T13:30:30.340Z,40.99
2018-07-14T13:32:59.970Z,40.51
2018-07-14T13:35:29.571Z,40.51
2018-07-14T13:37:59.247Z,41.39
2018-07-14T13:40:28.884Z,40.85
2018-07-14T13:42:58.530Z,38.84
2018-07-14T13:45:28.268Z,39.06
2018-07-14T13:47:57.897Z,39.18
2018-07-14T13:50:27.523Z,40.50
2018-07-14T13:52:57.240Z,41.56
2018-07-14T13:55:26.940Z,41.54
2018-07-14T13:57:56.554Z,40.78
2018-07-14T14:00:26.225Z,39.73
2018-07-14T14:02:55.847Z,39.24
2018-07-14T14:05:25.526Z,38.79
2018-07-14T14:07:55.180Z,39.08
2018-07-14T14:10:24.828Z,38.94
2018-07-14T14:12:54.459Z,39.76
2018-07-14T14:15:24.119Z,39.55
2018-07-14T14:17:53.744Z,38.26
2018-07-14T14:20:23.404Z,38.21
2018-07-14T14:22:53.080Z,38.36
2018-07-14T14:25:22.699Z,37.75
2018-07-14T14:27:52.328Z,39.86
2018-07-14T14:30:22.056Z,40.23
2018-07-14T14:32:51.691Z,40.65
2018-07-14T14:35:21.383Z,38.79
2018-07-14T14:37:51.064Z,41.25
2018-07-14T14:40:20.692Z,39.42
2018-07-14T14:42:50.357Z,39.62
2018-07-14T14:45:20.048Z,41.58
2018-07-14T14:47:49.712Z,41.60
2018-07-14T14:50:19.322Z,42.79
2018-07-14T14:52:48.976Z,41.31
2018-07-14T14:55:18.595Z,40.48
2018-07-14T14:57:48.260Z,41.38
2018-07-14T15:00:17.915Z,41.15
2018-07-14T15:02:47.592Z,43.64
2018-07-14T15:05:17.231Z,44.05
2018-07-14T15:07:46.899Z,43.72
2018-07-14T15:10:16.560Z,43.96
2018-07-14T15:12:46.264Z,43.24
2018-07-14T15:15:15.908Z,43.53
2018-07-14T15:17:45.551Z,42.94
2018-07-14T15:20:15.240Z,43.74
2018-07-14T15:22:44.888Z,43.81
2018-07-14T15:25:14.495Z,44.68
2018-07-14T15:27:44.483Z,45.76
2018-07-14T15:30:14.111Z,45.28
2018-07-14T15:32:44.001Z,44.69
2018-07-14T15:35:13.552Z,45.66
2018-07-14T15:37:43.179Z,46.40
2018-07-14T15:40:13.273Z,45.00
2018-07-14T15:42:43.436Z,44.51
2018-07-14T15:45:13.111Z,46.34
2018-07-14T15:47:42.765Z,45.36
2018-07-14T15:50:12.435Z,45.46
2018-07-14T15:52:42.103Z,45.67
2018-07-14T15:55:11.788Z,45.37
2018-07-14T15:57:41.391Z,47.34
2018-07-14T16:00:11.158Z,47.44
2018-07-14T16:02:40.836Z,46.18
2018-07-14T16:05:10.495Z,46.36
2018-07-14T16:07:40.184Z,45.69
2018-07-14T16:10:09.816Z,45.48
2018-07-14T16:12:41.476Z,47.10
2018-07-14T16:15:11.587Z,46.68
2018-07-14T16:17:41.256Z,47.21
2018-07-14T16:20:10.892Z,48.79
2018-07-14T16:22:40.506Z,46.42
2018-07-14T16:25:10.200Z,45.78
2018-07-14T16:27:39.824Z,47.40
2018-07-14T16:30:09.479Z,46.52
2018-07-14T16:32:39.338Z,47.79
2018-07-14T16:35:08.989Z,47.08
2018-07-14T16:37:38.655Z,47.31
2018-07-14T16:40:08.372Z,47.85
2018-07-14T16:42:37.999Z,47.51
2018-07-14T16:45:07.755Z,46.35
2018-07-14T16:47:37.451Z,46.56
2018-07-14T16:50:07.168Z,45.88
2018-07-14T16:52:36.788Z,46.24
2018-07-14T16:55:06.719Z,47.92
2018-07-14T16:57:36.417Z,47.09
2018-07-14T17:00:06.316Z,46.44
2018-07-14T17:02:36.206Z,46.20
2018-07-14T17:05:05.875Z,47.07
2018-07-14T17:07:35.556Z,46.93
2018-07-14T17:10:05.252Z,47.52
2018-07-14T17:12:34.839Z,47.47
2018-07-14T17:15:04.506Z,47.23
2018-07-14T17:17:34.123Z,46.70
2018-07-14T17:20:03.784Z,46.07
2018-07-14T17:22:33.432Z,47.27
2018-07-14T17:25:03.051Z,47.45
2018-07-14T17:27:32.672Z,46.37
2018-07-14T17:30:02.340Z,46.81
2018-07-14T17:32:31.947Z,46.64
2018-07-14T17:35:01.560Z,47.97
2018-07-14T17:37:31.220Z,46.40
2018-07-14T17:40:00.846Z,46.04
2018-07-14T17:42:30.496Z,46.68
2018-07-14T17:45:00.168Z,46.69
2018-07-14T17:47:29.824Z,47.27
2018-07-14T17:49:59.460Z,47.13
2018-07-14T17:52:29.379Z,46.34
2018-07-14T17:54:59.051Z,46.67
2018-07-14T17:57:28.736Z,46.61
2018-07-14T17:59:58.432Z,46.33
2018-07-14T18:02:28.056Z,45.67
2018-07-14T18:04:57.664Z,46.28
2018-07-14T18:07:27.340Z,46.54
2018-07-14T18:09:56.967Z,45.85
2018-07-14T18:12:26.593Z,46.46
2018-07-14T18:14:56.252Z,46.86
2018-07-14T18:17:25.889Z,46.24
2018-07-14T18:19:55.508Z,46.43
2018-07-14T18:22:25.190Z,47.22
2018-07-14T18:24:54.809Z,47.99
2018-07-14T18:27:24.476Z,48.26
2018-07-14T18:29:54.084Z,47.18
2018-07-14T18:32:23.726Z,47.78
2018-07-14T18:34:53.421Z,47.46
2018-07-14T18:37:23.020Z,48.05
2018-07-14T18:39:52.626Z,48.04
2018-07-14T18:42:22.284Z,47.92
2018-07-14T18:44:51.894Z,47.84
2018-07-14T18:47:21.536Z,48.01
2018-07-14T18:49:51.228Z,47.80
2018-07-14T18:52:20.921Z,48.95
2018-07-14T18:54:50.703Z,48.73
2018-07-14T18:57:20.356Z,49.27
2018-07-14T18:59:50.012Z,48.56
2018-07-14T19:02:19.640Z,47.47
2018-07-14T19:04:49.316Z,48.26
2018-07-14T19:07:18.939Z,48.65
2018-07-14T19:09:48.607Z,48.68
2018-07-14T19:12:18.223Z,48.99
2018-07-14T19:14:47.888Z,50.08
2018-07-14T19:17:17.560Z,49.63
2018-07-14T19:19:47.177Z,51.11
2018-07-14T19:22:16.805Z,51.04
2018-07-14T19:24:46.455Z,52.11
2018-07-14T19:27:16.100Z,52.60
2018-07-14T19:29:45.713Z,52.53
2018-07-14T19:32:15.384Z,52.77
2018-07-14T19:34:45.064Z,53.36
2018-07-14T19:37:14.716Z,53.79
2018-07-14T19:39:44.788Z,53.17
2018-07-14T19:42:14.424Z,53.87
2018-07-14T19:44:44.152Z,54.76
2018-07-14T19:47:13.864Z,55.28
2018-07-14T19:49:43.504Z,55.52
2018-07-14T19:52:13.204Z,55.21
2018-07-14T19:54:42.807Z,55.80
2018-07-14T19:57:12.432Z,56.39
2018-07-14T19:59:42.075Z,57.04
2018-07-14T20:02:11.703Z,57.10
2018-07-14T20:04:41.330Z,57.30
2018-07-14T20:07:11.016Z,57.33
2018-07-14T20:09:40.665Z,58.08
2018-07-14T20:12:10.321Z,58.11
2018-07-14T20:14:39.972Z,58.04
2018-07-14T20:17:09.579Z,58.43
2018-07-14T20:19:39.321Z,58.80
2018-07-14T20:22:08.898Z,58.94
2018-07-14T20:24:38.516Z,58.96
2018-07-14T20:27:08.172Z,59.18
2018-07-14T20:29:37.790Z,59.55
2018-07-14T20:32:07.415Z,59.79
2018-07-14T20:34:37.075Z,59.84
2018-07-14T20:37:06.695Z,60.11
2018-07-14T20:39:36.335Z,59.71
2018-07-14T20:42:06.038Z,60.12
2018-07-14T20:44:35.744Z,60.43
2018-07-14T20:47:05.389Z,60.34
2018-07-14T20:49:35.076Z,60.30
2018-07-14T20:52:04.702Z,60.50
2018-07-14T20:54:34.319Z,60.38
2018-07-14T20:57:04.063Z,60.48
2018-07-14T20:59:33.688Z,60.16
2018-07-14T21:02:03.315Z,60.22
2018-07-14T21:04:32.963Z,60.25
2018-07-14T21:07:02.565Z,60.29
2018-07-14T21:09:32.315Z,60.55
2018-07-14T21:12:01.931Z,60.64
2018-07-14T21:14:31.560Z,61.11
2018-07-14T21:17:01.246Z,60.74
2018-07-14T21:19:30.844Z,60.56
2018-07-14T21:22:00.463Z,60.64
2018-07-14T21:24:30.111Z,60.76
2018-07-14T21:26:59.771Z,60.55
2018-07-14T21:29:29.696Z,60.45
2018-07-14T21:31:59.409Z,60.17
2018-07-14T21:34:29.282Z,60.58
2018-07-14T21:36:58.895Z,60.62
2018-07-14T21:39:28.576Z,60.92
2018-07-14T21:41:58.200Z,60.58
2018-07-14T21:44:27.805Z,61.10
2018-07-14T21:46:57.472Z,60.99
2018-07-14T21:49:27.139Z,60.90
2018-07-14T21:51:56.791Z,61.02
2018-07-14T21:54:26.484Z,61.49
2018-07-14T21:56:56.120Z,61.21
2018-07-14T21:59:25.728Z,61.92
2018-07-14T22:01:55.660Z,62.53
2018-07-14T22:04:25.291Z,63.01
2018-07-14T22:06:54.905Z,62.62
2018-07-14T22:09:24.563Z,62.63
2018-07-14T22:11:54.181Z,63.85
2018-07-14T22:14:23.793Z,63.04
2018-07-14T22:16:53.428Z,63.54
2018-07-14T22:19:23.052Z,63.31
2018-07-14T22:21:52.732Z,62.93
2018-07-14T22:24:22.422Z,62.67
2018-07-14T22:26:52.219Z,62.84
2018-07-14T22:29:21.927Z,62.86
2018-07-14T22:31:51.571Z,62.83
2018-07-14T22:34:21.217Z,63.26
2018-07-14T22:36:50.860Z,63.29
2018-07-14T22:39:20.527Z,63.15
2018-07-14T22:41:50.211Z,63.89
2018-07-14T22:44:20.119Z,65.38
2018-07-14T22:46:49.779Z,66.52
2018-07-14T22:49:19.412Z,66.05
2018-07-14T22:51:49.132Z,65.30
2018-07-14T22:54:18.772Z,65.18
2018-07-14T22:56:48.396Z,66.26
2018-07-14T22:59:18.055Z,66.97
2018-07-14T23:01:47.676Z,67.02
2018-07-14T23:04:17.299Z,66.44
2018-07-14T23:06:46.980Z,66.02
2018-07-14T23:09:16.672Z,66.27
2018-07-14T23:11:46.364Z,66.21
2018-07-14T23:14:15.984Z,66.19
2018-07-14T23:16:45.600Z,65.62
2018-07-14T23:19:15.259Z,65.52
2018-07-14T23:21:44.884Z,65.63
2018-07-14T23:24:14.544Z,66.13
2018-07-14T23:26:44.188Z,66.06
2018-07-14T23:29:13.804Z,66.61
2018-07-14T23:31:43.415Z,66.38
2018-07-14T23:34:13.111Z,66.29
2018-07-14T23:36:42.715Z,66.69
2018-07-14T23:39:12.333Z,67.17
2018-07-14T23:41:42.107Z,67.43
2018-07-14T23:44:11.735Z,66.92
2018-07-14T23:46:41.332Z,68.53
2018-07-14T23:49:11.285Z,70.46
2018-07-14T23:51:40.935Z,70.23
2018-07-14T23:54:10.541Z,70.85
2018-07-14T23:56:40.195Z,70.42
2018-07-14T23:59:09.792Z,70.14
